Time;durP1;ratioP1;P1;durP2;ratioP2;P2;SDS_P1;SDS_P2;PMS_P1;PMS_P2;Temp;Humidity;BMP_temperature;BMP_pressure;BME280_temperature;BME280_humidity;BME280_pressure;Samples;Min_cycle;Max_cycle;Signal;HPM_P1;HPM_P2
2023/09/23 00:06:08;;;;;;;4.00;2.90;;;;;;;11.45;72.30;99653.78;20924687;28;20653;-79
2023/09/23 00:16:15;;;;;;;4.23;3.80;;;;;;;11.28;72.03;99658.84;20919179;28;20607;-79
2023/09/23 00:26:17;;;;;;;5.00;3.67;;;;;;;11.51;70.73;99669.31;20923205;28;20555;-80
2023/09/23 00:36:22;;;;;;;3.43;3.13;;;;;;;11.23;71.37;99679.59;20945753;28;20226;-80
2023/09/23 00:46:26;;;;;;;4.90;3.17;;;;;;;11.18;70.75;99699.53;20934031;28;20211;-78
2023/09/23 00:56:33;;;;;;;3.50;3.20;;;;;;;12.09;67.83;99706.66;20945313;28;20234;-79
2023/09/23 01:06:35;;;;;;;4.47;2.70;;;;;;;12.16;67.28;99723.81;20931285;28;20305;-80
2023/09/23 01:16:38;;;;;;;3.40;3.10;;;;;;;12.15;67.53;99729.81;20935855;28;20196;-78
2023/09/23 01:26:43;;;;;;;4.17;3.07;;;;;;;11.65;67.89;99738.63;20929891;28;20224;-79
2023/09/23 01:36:44;;;;;;;2.73;2.37;;;;;;;11.47;67.25;99757.69;20930091;28;20196;-79
2023/09/23 01:46:48;;;;;;;2.20;2.00;;;;;;;11.54;68.16;99761.59;20941893;28;20575;-80
2023/09/23 01:56:49;;;;;;;2.53;1.67;;;;;;;11.65;67.49;99778.91;20928692;28;20240;-81
2023/09/23 02:06:52;;;;;;;1.40;1.30;;;;;;;11.51;66.85;99793.28;20925211;28;20230;-79
2023/09/23 02:16:54;;;;;;;2.30;1.77;;;;;;;11.36;67.77;99793.13;20915109;28;20192;-79
2023/09/23 02:26:58;;;;;;;2.07;1.73;;;;;;;11.57;67.48;99811.59;20940779;28;20263;-79
2023/09/23 02:36:59;;;;;;;2.58;1.80;;;;;;;11.75;66.59;99834.81;20924945;28;20200;-89
2023/09/23 02:47:02;;;;;;;2.03;1.80;;;;;;;11.89;67.65;99849.41;20929890;28;20219;-80
2023/09/23 02:57:07;;;;;;;3.83;2.47;;;;;;;11.72;67.59;99843.16;20908855;28;20227;-82
2023/09/23 03:07:11;;;;;;;3.55;3.25;;;;;;;11.49;69.31;99849.16;20914951;28;20210;-79
2023/09/23 03:17:21;;;;;;;6.50;3.47;;;;;;;11.82;67.83;99863.28;20918047;28;20199;-79
2023/09/23 03:27:28;;;;;;;5.60;3.33;;;;;;;11.28;68.96;99859.66;20925617;28;20685;-81
2023/09/23 03:37:30;;;;;;;7.33;3.10;;;;;;;11.34;69.91;99855.44;20914763;28;20207;-79
2023/09/23 03:47:34;;;;;;;4.47;2.67;;;;;;;11.34;70.58;99865.88;20921175;28;20246;-89
2023/09/23 03:57:35;;;;;;;3.80;2.17;;;;;;;11.97;66.53;99858.94;20926347;28;20203;-90
2023/09/23 04:07:40;;;;;;;4.03;2.20;;;;;;;11.85;67.00;99878.66;20927108;28;20226;-88
2023/09/23 04:17:41;;;;;;;4.13;1.58;;;;;;;11.71;67.00;99886.59;20932842;28;20272;-88
2023/09/23 04:27:52;;;;;;;4.40;1.37;;;;;;;11.41;68.32;99897.97;20935226;28;20220;-88
2023/09/23 04:37:54;;;;;;;1.67;1.00;;;;;;;11.85;66.88;99904.03;20937776;28;20548;-83
2023/09/23 04:48:00;;;;;;;2.67;1.10;;;;;;;11.34;68.52;99920.22;20920757;28;20231;-88
2023/09/23 04:58:02;;;;;;;1.40;0.90;;;;;;;11.20;68.75;99926.13;20924056;28;20204;-88
2023/09/23 05:08:09;;;;;;;4.47;1.57;;;;;;;11.35;68.73;99940.78;20926810;28;20263;-84
2023/09/23 05:18:11;;;;;;;7.23;2.00;;;;;;;11.32;68.70;99953.53;20936057;28;20587;-85
2023/09/23 05:28:14;;;;;;;5.50;1.43;;;;;;;11.54;68.20;99978.56;20929613;28;20273;-84
2023/09/23 05:38:16;;;;;;;2.67;1.60;;;;;;;11.81;66.72;100004.59;20929516;28;20615;-89
2023/09/23 05:48:20;;;;;;;5.67;1.90;;;;;;;11.78;66.56;100014.56;20927268;28;20792;-85
2023/09/23 05:58:22;;;;;;;3.77;2.07;;;;;;;11.43;67.60;100038.50;20947717;28;20256;-87
2023/09/23 06:08:27;;;;;;;4.80;2.30;;;;;;;11.60;66.98;100060.13;20936023;28;20315;-86
2023/09/23 06:18:28;;;;;;;3.38;2.13;;;;;;;11.48;67.51;100070.09;20932394;28;20215;-88
2023/09/23 06:28:32;;;;;;;4.82;1.95;;;;;;;11.63;66.82;100087.63;20935447;28;20266;-88
2023/09/23 06:38:34;;;;;;;4.23;2.33;;;;;;;11.87;66.57;100107.50;20939699;28;20195;-89
2023/09/23 06:48:37;;;;;;;5.77;2.43;;;;;;;11.75;66.48;100132.78;20932184;28;20274;-89
2023/09/23 06:58:38;;;;;;;5.25;1.88;;;;;;;11.76;66.75;100148.56;20932314;28;20306;-86
2023/09/23 07:08:41;;;;;;;2.73;1.77;;;;;;;12.10;65.01;100165.22;20924539;28;20616;-89
2023/09/23 07:18:45;;;;;;;2.67;1.57;;;;;;;11.97;65.99;100169.13;20926845;28;20200;-87
2023/09/23 07:28:50;;;;;;;3.27;1.93;;;;;;;11.53;67.93;100185.47;20930899;28;20229;-89
2023/09/23 07:38:51;;;;;;;4.97;1.97;;;;;;;11.96;66.16;100198.50;20951046;28;20269;-88
2023/09/23 07:48:55;;;;;;;3.53;1.90;;;;;;;11.96;67.03;100197.66;20922547;28;20261;-88
2023/09/23 07:58:56;;;;;;;5.47;1.80;;;;;;;12.18;66.19;100226.41;20926865;28;20200;-86
2023/09/23 08:08:59;;;;;;;3.47;1.87;;;;;;;12.27;65.79;100246.91;20937888;28;20534;-89
2023/09/23 08:19:02;;;;;;;3.60;1.60;;;;;;;12.22;64.94;100264.03;20935549;28;20204;-89
2023/09/23 08:29:06;;;;;;;2.80;1.30;;;;;;;12.46;64.60;100273.84;20923603;28;20219;-88
2023/09/23 08:39:09;;;;;;;3.50;1.67;;;;;;;12.15;65.69;100291.13;20907971;28;20195;-80
2023/09/23 08:49:13;;;;;;;3.20;1.63;;;;;;;12.74;64.08;100294.72;20920076;28;20239;-79
2023/09/23 08:59:15;;;;;;;6.70;1.52;;;;;;;13.45;62.15;100305.91;20943936;28;20200;-87
2023/09/23 09:09:19;;;;;;;6.47;2.10;;;;;;;12.91;61.58;100310.72;20945981;28;20697;-89
2023/09/23 09:19:21;;;;;;;2.33;2.22;;;;;;;13.05;61.27;100318.91;20936855;28;20192;-89
2023/09/23 09:29:25;;;;;;;4.50;1.20;;;;;;;13.62;59.62;100328.31;20932694;28;20544;-83
2023/09/23 09:39:28;;;;;;;3.03;1.37;;;;;;;13.67;59.01;100330.91;20949151;28;20588;-83
2023/09/23 09:49:32;;;;;;;2.80;1.20;;;;;;;13.37;58.75;100343.56;20928777;28;20301;-85
2023/09/23 09:59:37;;;;;;;1.13;0.73;;;;;;;14.34;55.67;100335.25;20938664;28;20204;-88
2023/09/23 10:09:55;;;;;;;4.10;0.70;;;;;;;14.63;53.81;100351.16;20934247;28;20216;-87
2023/09/23 10:19:58;;;;;;;2.35;0.63;;;;;;;15.53;51.17;100344.16;20938686;28;20286;-89
2023/09/23 10:30:01;;;;;;;1.50;0.73;;;;;;;14.51;52.25;100347.53;20935403;28;20220;-86
2023/09/23 10:40:11;;;;;;;1.90;0.47;;;;;;;14.70;53.10;100365.53;20923933;28;20226;-80
2023/09/23 10:50:15;;;;;;;1.70;0.50;;;;;;;14.89;53.02;100373.44;21495746;22;20321;-86
2023/09/23 11:00:20;;;;;;;1.73;0.40;;;;;;;14.16;54.19;100395.25;21142409;27;20198;-83
2023/09/23 11:10:24;;;;;;;1.40;0.52;;;;;;;14.28;53.32;100396.13;21125252;28;20220;-88
2023/09/23 11:20:29;;;;;;;3.17;0.50;;;;;;;15.45;51.64;100404.72;21136524;28;20259;-84
2023/09/23 11:30:36;;;;;;;1.38;0.68;;;;;;;14.72;51.62;100421.84;21131999;28;20221;-83
2023/09/23 11:40:38;;;;;;;5.57;0.57;;;;;;;15.28;49.84;100427.69;21146324;28;20224;-87
2023/09/23 11:50:42;;;;;;;3.05;1.23;;;;;;;15.12;50.73;100435.28;21119293;27;20230;-86
2023/09/23 12:00:47;;;;;;;4.22;1.80;;;;;;;15.33;49.83;100442.41;21063759;28;20194;-84
2023/09/23 12:10:50;;;;;;;2.30;1.02;;;;;;;16.01;48.23;100444.41;21052737;28;20747;-80
2023/09/23 12:20:53;;;;;;;2.25;0.52;;;;;;;15.31;47.92;100456.16;21070473;28;20281;-89
2023/09/23 12:30:56;;;;;;;2.53;0.55;;;;;;;15.18;49.08;100468.72;21064993;28;20218;-90
2023/09/23 12:40:58;;;;;;;0.80;0.35;;;;;;;15.41;48.37;100481.16;21063163;28;20199;-89
2023/09/23 12:51:01;;;;;;;3.42;0.20;;;;;;;15.99;46.54;100476.00;21055340;28;20582;-89
2023/09/23 13:01:03;;;;;;;2.35;0.40;;;;;;;15.94;46.47;100481.97;21072016;28;20523;-89
2023/09/23 13:11:06;;;;;;;1.38;0.38;;;;;;;15.71;45.94;100498.69;21083698;28;20307;-81
2023/09/23 13:21:09;;;;;;;3.60;0.30;;;;;;;16.28;45.41;100497.50;21082713;28;20190;-85
2023/09/23 13:31:14;;;;;;;2.50;0.47;;;;;;;16.13;46.23;100504.78;21059478;28;20215;-82
2023/09/23 13:41:19;;;;;;;1.25;0.28;;;;;;;16.31;45.50;100510.97;21059348;28;20195;-90
2023/09/23 13:51:22;;;;;;;2.60;0.40;;;;;;;15.35;47.57;100532.81;21057287;28;20290;-87
2023/09/23 14:01:25;;;;;;;2.90;0.40;;;;;;;15.72;47.86;100537.22;21058386;28;20496;-86
2023/09/23 14:11:28;;;;;;;3.20;0.80;;;;;;;15.83;47.85;100550.94;21059169;28;20222;-80
2023/09/23 14:21:33;;;;;;;3.75;1.05;;;;;;;15.50;48.75;100551.94;21048137;28;20201;-81
2023/09/23 14:31:36;;;;;;;3.35;0.90;;;;;;;15.37;48.44;100551.13;21068719;28;20215;-81
2023/09/23 14:41:40;;;;;;;2.53;0.80;;;;;;;15.52;48.83;100562.91;21072026;28;20204;-84
2023/09/23 14:51:43;;;;;;;2.75;0.60;;;;;;;14.90;50.22;100576.25;21054614;28;20305;-81
2023/09/23 15:01:46;;;;;;;1.42;0.45;;;;;;;15.64;48.51;100586.41;21066321;28;20202;-80
2023/09/23 15:12:10;;;;;;;2.72;0.60;;;;;;;15.49;50.28;100595.66;21059228;28;20476;-81
2023/09/23 15:22:26;;;;;;;1.80;0.70;;;;;;;15.74;49.09;100602.94;21045938;28;20209;-86
2023/09/23 15:32:29;;;;;;;2.05;0.65;;;;;;;16.01;49.39;100611.91;21063080;28;20436;-80
2023/09/23 15:42:42;;;;;;;2.13;0.55;;;;;;;15.29;50.26;100642.00;21062876;28;20197;-84
2023/09/23 15:52:53;;;;;;;3.22;0.85;;;;;;;15.06;57.17;100673.63;21056783;28;20354;-85
2023/09/23 16:03:15;;;;;;;2.90;0.80;;;;;;;14.34;61.51;100672.13;21048762;28;20194;-87
2023/09/23 16:13:24;;;;;;;3.40;1.23;;;;;;;14.42;61.59;100680.91;21060835;28;20469;-86
2023/09/23 16:23:49;;;;;;;5.97;1.25;;;;;;;14.52;62.40;100691.81;21057591;28;20234;-86
2023/09/23 16:33:53;;;;;;;1.15;0.63;;;;;;;14.71;58.36;100709.13;21058046;28;20210;-83
2023/09/23 16:44:09;;;;;;;2.53;0.63;;;;;;;15.00;56.45;100706.19;21045238;28;20193;-82
2023/09/23 16:54:15;;;;;;;1.58;0.80;;;;;;;14.78;57.00;100720.72;21051311;28;20228;-85
2023/09/23 17:04:17;;;;;;;3.42;1.00;;;;;;;14.63;59.43;100742.03;21045845;28;20190;-90
2023/09/23 17:14:27;;;;;;;4.30;0.70;;;;;;;14.73;57.13;100766.25;21059348;28;20201;-84
2023/09/23 17:24:36;;;;;;;1.92;0.60;;;;;;;14.32;58.15;100784.91;21059940;28;20247;-79
2023/09/23 17:34:44;;;;;;;2.70;1.15;;;;;;;14.48;56.80;100795.63;21077625;28;20199;-86
2023/09/23 17:44:57;;;;;;;1.88;0.43;;;;;;;14.29;57.74;100819.53;21079633;28;20625;-79
2023/09/23 17:55:24;;;;;;;3.30;0.80;;;;;;;14.35;57.39;100829.50;21078145;28;20230;-80
2023/09/23 18:05:26;;;;;;;5.22;2.60;;;;;;;14.25;57.94;100844.06;21063881;28;20218;-81
2023/09/23 18:15:30;;;;;;;3.30;1.23;;;;;;;14.01;58.87;100855.16;21069752;28;20240;-88
2023/09/23 18:25:32;;;;;;;1.40;0.57;;;;;;;14.20;58.20;100874.56;21067716;28;20222;-89
2023/09/23 18:35:35;;;;;;;1.05;0.57;;;;;;;14.03;59.31;100892.44;21070712;28;20197;-88
2023/09/23 18:46:00;;;;;;;1.97;0.80;;;;;;;14.37;58.79;100908.47;21052193;28;20221;-80
2023/09/23 18:56:32;;;;;;;2.03;1.00;;;;;;;14.14;59.05;100924.84;21055172;28;20268;-80
2023/09/23 19:06:53;;;;;;;;;;;;;;;;;;;;;
2023/09/23 19:16:57;;;;;;;4.20;0.88;;;;;;;14.14;60.72;100958.81;21069902;28;20202;-84
2023/09/23 19:26:59;;;;;;;2.08;0.90;;;;;;;14.08;59.78;100979.97;21058594;28;20510;-78
2023/09/23 19:37:02;;;;;;;1.17;0.80;;;;;;;13.97;60.38;100978.66;21061932;28;20595;-86
2023/09/23 19:47:04;;;;;;;4.75;1.42;;;;;;;14.66;58.57;100993.44;21056983;28;20232;-82
2023/09/23 19:57:07;;;;;;;5.50;1.13;;;;;;;14.35;58.71;100999.41;21058520;28;20226;-80
2023/09/23 20:07:09;;;;;;;6.18;1.10;;;;;;;13.76;60.07;101000.34;21053396;28;20237;-82
2023/09/23 20:17:25;;;;;;;3.13;1.03;;;;;;;14.17;59.03;101028.06;21061225;28;20206;-79
2023/09/23 20:27:26;;;;;;;1.92;0.95;;;;;;;13.92;59.96;101026.94;21066187;28;20218;-78
2023/09/23 20:37:30;;;;;;;4.43;1.38;;;;;;;14.42;58.31;101034.88;21047278;28;20217;-78
2023/09/23 20:47:32;;;;;;;2.73;1.17;;;;;;;14.19;59.33;101043.56;21084648;28;20218;-79
2023/09/23 20:57:35;;;;;;;4.20;1.70;;;;;;;13.93;60.63;101063.38;21068254;28;20245;-79
2023/09/23 21:07:37;;;;;;;2.70;1.70;;;;;;;14.51;59.15;101073.31;21070568;28;20724;-80
2023/09/23 21:17:41;;;;;;;4.40;1.63;;;;;;;14.23;60.34;101087.03;21064851;28;20282;-83
2023/09/23 21:27:42;;;;;;;4.75;1.83;;;;;;;14.12;61.02;101091.34;21070562;28;20686;-80
2023/09/23 21:37:46;;;;;;;4.78;1.85;;;;;;;14.27;60.97;101107.84;21076077;28;20306;-81
2023/09/23 21:47:47;;;;;;;5.75;1.50;;;;;;;13.90;62.19;101108.50;21073240;28;20305;-82
2023/09/23 21:57:50;;;;;;;3.83;1.57;;;;;;;14.34;62.27;101116.66;21082932;28;20230;-82
2023/09/23 22:07:55;;;;;;;4.47;1.80;;;;;;;14.12;62.25;101122.47;21075672;28;20222;-78
2023/09/23 22:17:58;;;;;;;4.87;2.17;;;;;;;13.63;63.46;101127.47;21063098;28;20199;-83
2023/09/23 22:28:01;;;;;;;4.00;1.73;;;;;;;13.58;63.30;101143.75;21057529;28;20211;-80
2023/09/23 22:38:05;;;;;;;2.60;1.75;;;;;;;13.34;63.85;101136.50;21066151;28;20195;-78
2023/09/23 22:48:08;;;;;;;5.90;1.98;;;;;;;13.38;63.58;101141.53;21070955;28;20226;-79
2023/09/23 22:58:11;;;;;;;4.07;2.30;;;;;;;13.58;63.28;101144.56;21074864;28;20234;-77
2023/09/23 23:08:12;;;;;;;3.17;2.00;;;;;;;13.14;64.60;101156.03;21058858;28;20229;-79
2023/09/23 23:18:15;;;;;;;4.63;2.42;;;;;;;13.08;64.40;101182.78;21057253;28;20230;-79
2023/09/23 23:28:17;;;;;;;3.25;2.08;;;;;;;12.83;65.52;101190.81;21071630;28;20249;-78
2023/09/23 23:38:20;;;;;;;5.70;2.90;;;;;;;12.70;66.24;101205.84;21060763;28;20484;-78
2023/09/23 23:48:22;;;;;;;6.23;2.67;;;;;;;12.84;65.79;101212.25;21062541;28;20322;-78
2023/09/23 23:58:25;;;;;;;4.75;2.47;;;;;;;12.89;65.30;101217.75;21070541;28;20222;-79
